Impacts TAF Board INFO
FOR SITUATIONAL AWARENESS. NOT TO BE USED FOR FLIGHT PLANNING PURPOSES.
IDs:

KJFK - New York/Kennedy Int, NY, US

Issued at 1735 UTC 24 Jun 2018
Updated at 1811 UTC 24 Jun 2018
Potential Impact None Slight Moderate High
Time1751Z 24/19Z 24/20Z 24/21Z 24/22Z 24/23Z 25/00Z 25/01Z 25/02Z 25/03Z 25/04Z 25/05Z 25/06Z 25/07Z>>
Type OBS PRVL PRVL PRVL PRVL PRVL PRVL PRVL PRVL PRVL PRVL PRVL PRVL PRVL
VIS 10 >6 >6 >6 >6 >6 >6 >6 >6 >6 >6 >6 >6 >6
CIG 170 -- -- -- 40 40 40 40 250 250 250 250 250 250
Cover BKN SCT SCT SCT BKN BKN BKN BKN BKN BKN BKN BKN BKN BKN
FltCat VFR VFR VFR VFR VFR VFR VFR VFR VFR VFR VFR VFR VFR VFR
WX -- -- -- -- VCTS VCTS VCTS VCTS VCSH VCSH VCSH VCSH -- --
WDir 180 190 190 190 210 210 210 210 270 270 270 270 310 310
WSpd 11 12 12 12 11 11 11 11 8 8 8 8 7 7
WGst -- -- -- -- -- -- -- -- -- -- -- -- -- --

Raw TAF
KJFK 241735Z 2418/2524 18012KT P6SM FEW008 SCT025 SCT200
  TEMPO 2418/2419 BKN035
  FM241900 19012KT P6SM SCT040 SCT200
  FM242200 21011KT P6SM VCTS BKN040CB
  FM250200 27008KT P6SM VCSH SCT040 BKN250
  FM250600 31007KT P6SM FEW030 BKN250
  FM250900 33010KT P6SM FEW030 BKN250
  FM251400 32014G22KT P6SM SCT050 SCT250


Raw METAR
KJFK 241751Z 18011KT 10SM FEW008 SCT030 SCT055 BKN170 BKN250 24/22 A2983 RMK AO2 SLP101 60000 T02390217 10244 20189 58006
KJFK 241700Z 17012KT 10SM FEW008 SCT025 BKN170 BKN250 24/21 A2984 RMK AO2 T02440211
KJFK 241651Z 16012KT 10SM FEW015 SCT025 BKN170 BKN250 24/21 A2984 RMK AO2 SLP105 T02390211
KJFK 241551Z 20006KT 10SM SCT012 SCT022 BKN170 BKN250 23/21 A2984 RMK AO2 SLP106 T02330206
KJFK 241533Z 18008KT 9SM SCT012 BKN022 BKN170 BKN250 24/21 A2985 RMK AO2 T02390206

METAR Board
Radar Display
Forecast Discussion

FOR SITUATIONAL AWARENESS. NOT TO BE USED FOR FLIGHT PLANNING PURPOSES.